Active alerts

Hennepin
  Details for Hennepin River Flood Warning


weather webcam more information weather webcam


Thunder radar more information blitzortung!


Rain radar more information rain snow radar


Visit our other weather sites:

Template documentation
and downloads

And another site


Weather Underground History page Text

Daily Summary for June 24, 2018 Units:  English    Metric   Both
« Previous Day
Next Day »
Daily Weekly Monthly Yearly Custom
  Current: High: Low: Average:
Temperature: 74.3 °F TemperatureF °F 62.3 °F 65.3 °F
Dew Point: 67.0 °F DewpointF °F 60.0 °F 61.7 °F
Humidity: 78 % Humidity % 77 % 87 %
Wind Speed: 0.0 mph WindSpeedMPH mph 0.0 mph 0.1 mph
Wind Gust: 4.0 mph WindSpeedGustMPH mph - -
Wind:Calm - - ESE
Pressure: 29.89 in PressureIn in 29.78 in -
Precipitation: 0.00 in      
Historical Graphs
 
 
Tabular Data for June 24, 2018
Time Temperature Dew Point Pressure Wind Wind Speed Wind Gust Humidity Rainfall Rate (Hourly)
TemperatureF °F DewpointF °F PressureIn in Calm     Humidity % HourlyPrecipIn in
00:05 67.6 °F 61.9 °F 29.78 in Calm     82 % 0.00 in
00:09 67.4 °F 61.7 °F 29.78 in Calm     82 % 0.00 in
00:15 67.2 °F 61.5 °F 29.79 in Calm     82 % 0.00 in
00:19 67.1 °F 61.8 °F 29.79 in Calm     83 % 0.00 in
00:25 66.9 °F 61.6 °F 29.79 in Calm     83 % 0.00 in
00:30 66.7 °F 61.7 °F 29.79 in Calm     84 % 0.00 in
00:34 66.6 °F 61.6 °F 29.79 in Calm     84 % 0.00 in
00:40 66.5 °F 61.5 °F 29.79 in Calm     84 % 0.00 in
00:45 66.3 °F 61.3 °F 29.79 in Calm     84 % 0.00 in
00:50 66.2 °F 61.6 °F 29.79 in Calm     85 % 0.00 in
00:55 66.0 °F 61.4 °F 29.79 in Calm     85 % 0.00 in
01:00 65.9 °F 61.6 °F 29.79 in Calm     86 % 0.00 in
01:04 65.9 °F 61.6 °F 29.79 in Calm     86 % 0.00 in
01:10 65.8 °F 61.5 °F 29.79 in Calm     86 % 0.00 in
01:14 65.7 °F 61.4 °F 29.79 in Calm     86 % 0.00 in
01:19 65.6 °F 61.3 °F 29.79 in Calm     86 % 0.00 in
01:24 65.4 °F 61.1 °F 29.79 in Calm     86 % 0.00 in
01:30 65.3 °F 61.3 °F 29.79 in Calm     87 % 0.00 in
01:35 65.2 °F 61.2 °F 29.79 in Calm     87 % 0.00 in
01:40 65.2 °F 61.2 °F 29.79 in Calm     87 % 0.00 in
01:45 65.2 °F 61.2 °F 29.79 in Calm     87 % 0.00 in
01:49 65.1 °F 61.1 °F 29.79 in Calm     87 % 0.00 in
01:55 65.0 °F 61.0 °F 29.79 in Calm     87 % 0.00 in
02:00 65.0 °F 61.0 °F 29.79 in Calm     87 % 0.00 in
02:04 64.9 °F 61.3 °F 29.79 in Calm     88 % 0.00 in
02:10 64.9 °F 61.3 °F 29.79 in Calm     88 % 0.00 in
02:15 64.9 °F 61.3 °F 29.80 in Calm     88 % 0.00 in
02:20 64.9 °F 61.3 °F 29.80 in Calm     88 % 0.00 in
02:25 64.8 °F 61.2 °F 29.80 in Calm     88 % 0.00 in
02:30 64.7 °F 61.1 °F 29.80 in Calm     88 % 0.00 in
02:34 64.6 °F 61.0 °F 29.80 in Calm     88 % 0.00 in
02:40 64.5 °F 60.9 °F 29.80 in Calm     88 % 0.00 in
02:45 64.5 °F 61.2 °F 29.80 in Calm     89 % 0.00 in
02:49 64.4 °F 61.1 °F 29.80 in Calm     89 % 0.00 in
02:55 64.4 °F 61.1 °F 29.80 in Calm     89 % 0.00 in
03:00 64.3 °F 61.0 °F 29.80 in Calm     89 % 0.00 in
03:04 64.2 °F 60.9 °F 29.80 in Calm     89 % 0.00 in
03:10 64.2 °F 60.9 °F 29.80 in Calm     89 % 0.00 in
03:15 64.1 °F 61.1 °F 29.80 in Calm     90 % 0.00 in
03:19 64.0 °F 61.0 °F 29.80 in Calm     90 % 0.00 in
03:25 64.0 °F 61.0 °F 29.80 in Calm     90 % 0.00 in
03:30 63.9 °F 60.9 °F 29.80 in Calm     90 % 0.00 in
03:34 63.8 °F 60.8 °F 29.80 in Calm     90 % 0.00 in
03:40 63.7 °F 60.7 °F 29.80 in Calm     90 % 0.00 in
03:45 63.7 °F 60.7 °F 29.80 in Calm     90 % 0.00 in
03:50 63.6 °F 60.9 °F 29.80 in Calm     91 % 0.00 in
03:55 63.6 °F 60.9 °F 29.80 in Calm     91 % 0.00 in
04:00 63.6 °F 60.9 °F 29.80 in Calm     91 % 0.00 in
04:04 63.6 °F 60.9 °F 29.80 in Calm     91 % 0.00 in
04:09 63.6 °F 60.9 °F 29.80 in Calm     91 % 0.00 in
04:15 63.6 °F 60.9 °F 29.80 in Calm     91 % 0.00 in
04:19 63.6 °F 60.9 °F 29.80 in Calm     91 % 0.00 in
04:25 63.5 °F 60.8 °F 29.80 in Calm     91 % 0.00 in
04:30 63.5 °F 60.8 °F 29.80 in Calm     91 % 0.00 in
04:35 63.4 °F 60.7 °F 29.80 in Calm     91 % 0.00 in
04:40 63.3 °F 60.6 °F 29.81 in Calm     91 % 0.00 in
04:45 63.3 °F 60.6 °F 29.81 in Calm     91 % 0.00 in
04:49 63.2 °F 60.5 °F 29.81 in Calm     91 % 0.00 in
04:54 63.1 °F 60.4 °F 29.81 in Calm     91 % 0.00 in
04:59 63.1 °F 60.4 °F 29.81 in Calm     91 % 0.00 in
05:04 63.0 °F 60.3 °F 29.81 in Calm     91 % 0.00 in
05:09 62.9 °F 60.5 °F 29.81 in Calm     92 % 0.00 in
05:14 62.8 °F 60.4 °F 29.81 in Calm     92 % 0.00 in
05:19 62.7 °F 60.3 °F 29.81 in Calm     92 % 0.00 in
05:24 62.7 °F 60.3 °F 29.81 in Calm     92 % 0.00 in
05:29 62.6 °F 60.2 °F 29.81 in Calm     92 % 0.00 in
05:34 62.6 °F 60.2 °F 29.81 in Calm     92 % 0.00 in
05:39 62.5 °F 60.1 °F 29.81 in Calm     92 % 0.00 in
05:44 62.4 °F 60.0 °F 29.81 in Calm     92 % 0.00 in
05:49 62.4 °F 60.3 °F 29.81 in Calm     93 % 0.00 in
05:54 62.3 °F 60.2 °F 29.81 in Calm     93 % 0.00 in
05:59 62.3 °F 60.2 °F 29.81 in Calm     93 % 0.00 in
06:04 62.4 °F 60.3 °F 29.81 in Calm     93 % 0.00 in
06:09 62.5 °F 60.4 °F 29.82 in Calm     93 % 0.00 in
06:14 62.6 °F 60.5 °F 29.82 in Calm     93 % 0.00 in
06:19 62.6 °F 60.5 °F 29.82 in Calm     93 % 0.00 in
06:24 62.7 °F 60.6 °F 29.82 in Calm     93 % 0.00 in
06:29 62.8 °F 61.0 °F 29.82 in Calm   2.0 mph 94 % 0.00 in
06:34 62.9 °F 61.1 °F 29.82 in Calm   2.0 mph 94 % 0.00 in
06:39 63.1 °F 61.3 °F 29.82 in Calm     94 % 0.00 in
06:44 63.2 °F 61.4 °F 29.82 in Calm   1.0 mph 94 % 0.00 in
06:49 63.4 °F 61.6 °F 29.82 in Calm   1.0 mph 94 % 0.00 in
06:54 63.7 °F 61.9 °F 29.83 in Calm   1.0 mph 94 % 0.00 in
06:59 64.0 °F 62.2 °F 29.83 in Calm   1.0 mph 94 % 0.00 in
07:04 64.2 °F 62.4 °F 29.83 in Calm   2.0 mph 94 % 0.00 in
07:09 64.4 °F 62.6 °F 29.84 in Calm   2.0 mph 94 % 0.00 in
07:14 64.7 °F 62.9 °F 29.84 in Calm     94 % 0.00 in
07:19 65.1 °F 63.3 °F 29.84 in Calm   1.0 mph 94 % 0.00 in
07:24 65.5 °F 63.7 °F 29.84 in Calm   1.0 mph 94 % 0.00 in
07:29 66.0 °F 63.9 °F 29.84 in Calm   2.0 mph 93 % 0.00 in
07:34 66.6 °F 64.2 °F 29.85 in SE 1.0 mph 2.0 mph 92 % 0.00 in
07:39 67.1 °F 64.4 °F 29.85 in Calm   2.0 mph 91 % 0.00 in
07:44 67.6 °F 64.9 °F 29.85 in Calm   2.0 mph 91 % 0.00 in
07:49 68.1 °F 65.1 °F 29.85 in Calm   1.0 mph 90 % 0.00 in
07:54 68.6 °F 65.2 °F 29.86 in Calm   1.0 mph 89 % 0.00 in
07:59 69.2 °F 65.2 °F 29.86 in SE 1.0 mph 2.0 mph 87 % 0.00 in
08:04 69.7 °F 65.7 °F 29.86 in SE 1.0 mph 2.0 mph 87 % 0.00 in
08:09 70.1 °F 65.4 °F 29.87 in Calm   1.0 mph 85 % 0.00 in
08:14 70.6 °F 65.5 °F 29.87 in Calm   2.0 mph 84 % 0.00 in
08:19 70.9 °F 65.5 °F 29.87 in Calm   2.0 mph 83 % 0.00 in
08:24 71.2 °F 65.8 °F 29.87 in Calm     83 % 0.00 in
08:29 71.6 °F 65.8 °F 29.87 in Calm     82 % 0.00 in
08:34 71.9 °F 66.5 °F 29.87 in Calm     83 % 0.00 in
08:39 72.3 °F 66.5 °F 29.87 in Calm     82 % 0.00 in
08:44 72.5 °F 66.3 °F 29.88 in Calm   1.0 mph 81 % 0.00 in
08:49 72.8 °F 66.6 °F 29.88 in Calm   1.0 mph 81 % 0.00 in
08:54 73.1 °F 66.6 °F 29.88 in Calm   2.0 mph 80 % 0.00 in
08:59 73.2 °F 66.7 °F 29.88 in Calm   2.0 mph 80 % 0.00 in
09:04 73.3 °F 66.4 °F 29.88 in Calm   1.0 mph 79 % 0.00 in
09:09 73.4 °F 66.5 °F 29.88 in ENE 1.0 mph 2.0 mph 79 % 0.00 in
09:14 73.5 °F 66.6 °F 29.88 in Calm   3.0 mph 79 % 0.00 in
09:19 73.7 °F 66.4 °F 29.89 in Calm   3.0 mph 78 % 0.00 in
09:24 73.8 °F 66.5 °F 29.89 in Calm   3.0 mph 78 % 0.00 in
09:29 74.0 °F 66.7 °F 29.89 in NE 2.0 mph 3.0 mph 78 % 0.00 in
09:34 74.1 °F 66.4 °F 29.89 in Calm   2.0 mph 77 % 0.00 in
09:39 74.3 °F 67.0 °F 29.89 in Calm   4.0 mph 78 % 0.00 in
Edina, Minnesota
Compliments of Weather Underground - 4 mb

Script developed by  Jim McMurry - jmcmurry@mwt.net Adapted for the template by  Wim van der Kuil - Leuven-Template.eu

You find our weather info also at:

Weather Underground

Midwestern Weather Network

Citizen Weather Observer Program (CWOP)

HAMweather, WeatherForYou, PWS Weather

Equipment we use:

Weather-station
Davis VP2

Weather-program
Cumulus

Davis VP2

Cumulus